Modelo, Brazil
Current Conditions -  °F | °C
As of 9:00 PM on Friday 24 Oct 2014 (Local Time) from SBCH Reporting Station
Few Clouds Few Clouds  
Wind Chill: 77°   Ceiling: Unl
Heat Index: 79°   Visibility: 6mi
Dew Point: 64°   Wind: 3mph
Humidity: 65%   Direction: 20°NNE
Pressure: 29.91"   Gusts: NA
Location:  26.78°S, 53.06°W
Report Text: SBCH 242300Z 02003KT 9999 FEW043 25/18 Q1013
Loading
Personal Weather Stations






























Interactive Weather Map
Tropical Storm Tracking
New forecast layout! Learn more

10-Day Weather Forecast

Advertisements
Track Severe Weather on mobile